createdAt,value
2022-08-10T00:04:27.628Z,1.60
2022-08-10T00:09:50.802Z,1.80
2022-08-10T00:15:52.432Z,1.50
2022-08-10T00:20:57.645Z,1.77
2022-08-10T00:26:19.375Z,1.52
2022-08-10T00:31:57.865Z,1.48
2022-08-10T00:37:20.651Z,1.80
2022-08-10T00:42:42.538Z,1.85
2022-08-10T00:48:04.785Z,1.73
2022-08-10T00:53:28.121Z,1.77
2022-08-10T00:58:50.085Z,1.63
2022-08-10T01:04:36.427Z,1.60
2022-08-10T01:10:12.236Z,1.65
2022-08-10T01:15:43.386Z,1.48
2022-08-10T01:21:15.519Z,1.60
2022-08-10T01:26:48.246Z,1.73
2022-08-10T01:32:14.480Z,1.55
2022-08-10T01:37:43.641Z,1.70
2022-08-10T01:43:16.111Z,1.83
2022-08-10T01:48:47.532Z,1.60
2022-08-10T01:54:13.433Z,1.80
2022-08-10T01:59:38.969Z,1.50
2022-08-10T02:05:03.283Z,1.70
2022-08-10T02:10:27.405Z,1.83
2022-08-10T02:16:01.164Z,1.65
2022-08-10T02:21:25.697Z,1.70
2022-08-10T02:26:49.007Z,2.05
2022-08-10T02:32:36.083Z,1.67
2022-08-10T02:38:03.358Z,1.35
2022-08-10T02:45:26.835Z,1.42
2022-08-10T02:49:29.066Z,1.75
2022-08-10T02:55:04.650Z,1.40
2022-08-10T03:00:47.256Z,1.58
2022-08-10T03:06:14.129Z,1.77
2022-08-10T03:12:36.328Z,1.60
2022-08-10T03:17:21.779Z,1.77
2022-08-10T03:22:45.014Z,1.80
2022-08-10T03:28:07.587Z,1.70
2022-08-10T03:33:33.125Z,1.77
2022-08-10T03:38:55.264Z,1.70
2022-08-10T03:44:24.884Z,2.33
2022-08-10T03:49:48.704Z,1.90
2022-08-10T03:55:12.070Z,2.42
2022-08-10T04:00:55.794Z,2.17
2022-08-10T04:06:17.730Z,2.60
2022-08-10T04:11:40.800Z,2.20
2022-08-10T04:17:02.625Z,2.40
2022-08-10T04:22:29.490Z,2.28
2022-08-10T04:27:52.354Z,2.00
2022-08-10T04:33:16.866Z,1.85
2022-08-10T04:38:41.600Z,2.00
2022-08-10T04:44:03.708Z,2.30
2022-08-10T04:49:55.679Z,2.00
2022-08-10T04:55:07.744Z,2.00
2022-08-10T05:00:29.601Z,2.13
2022-08-10T05:05:51.381Z,2.25
2022-08-10T05:11:24.177Z,2.08
2022-08-10T05:16:46.053Z,1.98
2022-08-10T05:22:08.607Z,1.77
2022-08-10T05:27:30.451Z,4.38
2022-08-10T05:32:57.872Z,2.22
2022-08-10T05:38:23.179Z,2.03
2022-08-10T05:43:45.107Z,1.60
2022-08-10T05:49:06.922Z,2.20
2022-08-10T05:54:28.828Z,2.00
2022-08-10T06:00:10.978Z,2.03
2022-08-10T06:05:45.031Z,1.75
2022-08-10T06:12:28.683Z,1.90
2022-08-10T06:16:50.296Z,2.20
2022-08-10T06:22:12.161Z,2.00
2022-08-10T06:27:36.192Z,1.60
2022-08-10T06:32:59.893Z,1.70
2022-08-10T06:38:23.904Z,1.60
2022-08-10T06:43:50.023Z,1.88
2022-08-10T06:49:13.493Z,1.90
2022-08-10T06:54:36.343Z,2.17
2022-08-10T07:00:01.057Z,1.55
2022-08-10T07:05:27.368Z,1.38
2022-08-10T07:10:51.586Z,1.55
2022-08-10T07:16:14.504Z,1.45
2022-08-10T07:21:39.760Z,1.55
2022-08-10T07:27:03.850Z,1.55
2022-08-10T07:32:26.862Z,1.77
2022-08-10T07:37:51.862Z,1.63
2022-08-10T07:43:16.019Z,1.80
2022-08-10T07:48:46.004Z,1.73
2022-08-10T07:54:15.603Z,1.40
2022-08-10T07:59:48.389Z,1.40
2022-08-10T08:05:13.651Z,1.55
2022-08-10T08:10:56.119Z,1.60
2022-08-10T08:16:22.151Z,1.48
2022-08-10T08:24:10.318Z,1.48
2022-08-10T08:27:28.378Z,1.40
2022-08-10T08:32:51.052Z,1.70
2022-08-10T08:38:29.818Z,1.42
2022-08-10T08:44:29.512Z,1.45
2022-08-10T08:50:27.656Z,1.30
2022-08-10T08:56:05.829Z,1.30
2022-08-10T09:01:58.826Z,1.52
2022-08-10T09:08:00.910Z,1.50
2022-08-10T09:13:39.383Z,1.35
2022-08-10T09:19:19.671Z,1.20
2022-08-10T09:25:02.785Z,1.13
2022-08-10T09:31:21.045Z,1.15
2022-08-10T09:36:50.326Z,1.15
2022-08-10T09:42:23.525Z,1.23
2022-08-10T09:48:04.048Z,1.20
2022-08-10T09:53:55.038Z,1.17
2022-08-10T10:00:01.285Z,1.10
2022-08-10T10:05:57.932Z,1.10
2022-08-10T10:11:37.827Z,0.98
2022-08-10T10:17:47.338Z,1.20
2022-08-10T10:23:17.877Z,1.17
2022-08-10T10:34:59.308Z,1.15
2022-08-10T10:40:25.562Z,1.20
2022-08-10T10:45:56.125Z,1.40
2022-08-10T10:51:37.947Z,1.50
2022-08-10T10:57:22.623Z,1.08
2022-08-10T11:03:36.563Z,1.52
2022-08-10T11:09:05.115Z,1.40
2022-08-10T11:14:41.236Z,1.13
2022-08-10T11:20:17.926Z,1.50
2022-08-10T11:25:44.931Z,1.80
2022-08-10T11:31:19.614Z,1.50
2022-08-10T11:37:13.832Z,1.00
2022-08-10T11:42:51.207Z,1.75
2022-08-10T11:48:52.898Z,1.08
2022-08-10T11:54:29.225Z,1.15
2022-08-10T11:59:58.076Z,1.02
2022-08-10T12:05:52.600Z,1.30
2022-08-10T12:11:24.617Z,1.10
2022-08-10T12:16:49.965Z,1.38
2022-08-10T12:22:27.978Z,1.27
2022-08-10T12:27:56.535Z,1.55
2022-08-10T12:33:23.329Z,1.10
2022-08-10T12:39:04.495Z,1.15
2022-08-10T12:44:44.431Z,1.25
2022-08-10T12:50:32.953Z,1.27
2022-08-10T12:55:58.110Z,1.10
2022-08-10T13:01:24.346Z,1.23
2022-08-10T13:06:50.008Z,1.55
2022-08-10T13:12:37.150Z,1.63
2022-08-10T13:18:01.052Z,1.10
2022-08-10T13:23:27.039Z,1.17
2022-08-10T13:28:54.063Z,1.10
2022-08-10T13:34:43.652Z,1.27
2022-08-10T13:40:11.671Z,1.25
2022-08-10T13:45:39.162Z,1.23
2022-08-10T13:51:03.468Z,1.08
2022-08-10T13:56:27.678Z,0.90
2022-08-10T14:01:52.149Z,1.27
2022-08-10T14:07:16.106Z,1.30
2022-08-10T14:12:44.397Z,1.00
2022-08-10T14:18:08.668Z,1.20
2022-08-10T14:23:32.284Z,1.30
2022-08-10T14:29:18.849Z,1.25
2022-08-10T14:36:16.050Z,1.30
2022-08-10T14:40:35.925Z,1.35
2022-08-10T14:46:03.473Z,1.02
2022-08-10T14:51:43.912Z,0.90
2022-08-10T14:57:11.896Z,1.13
2022-08-10T15:02:55.972Z,1.17
2022-08-10T15:08:24.553Z,1.27
2022-08-10T15:14:14.866Z,0.90
2022-08-10T15:20:02.461Z,1.30
2022-08-10T15:25:24.682Z,1.25
2022-08-10T15:30:51.597Z,1.20
2022-08-10T15:36:38.299Z,1.30
2022-08-10T15:42:04.754Z,1.10
2022-08-10T15:47:46.271Z,0.90
2022-08-10T15:53:30.558Z,0.90
2022-08-10T15:58:56.043Z,1.20
2022-08-10T16:04:31.861Z,1.08
2022-08-10T16:10:23.853Z,1.00
2022-08-10T16:15:50.712Z,0.95
2022-08-10T16:21:24.306Z,1.20
2022-08-10T16:26:51.205Z,1.10
2022-08-10T16:32:14.474Z,1.10
2022-08-10T16:37:58.308Z,1.05
2022-08-10T16:43:23.671Z,1.50
2022-08-10T16:48:50.920Z,1.30
2022-08-10T16:54:17.117Z,1.15
2022-08-10T16:59:40.793Z,1.10
2022-08-10T17:05:04.247Z,1.10
2022-08-10T17:10:31.065Z,1.13
2022-08-10T17:16:00.674Z,1.40
2022-08-10T17:21:27.755Z,1.45
2022-08-10T17:26:51.054Z,1.15
2022-08-10T17:32:33.902Z,1.33
2022-08-10T17:38:10.758Z,1.15
2022-08-10T17:44:01.467Z,1.30
2022-08-10T17:49:19.322Z,1.30
2022-08-10T17:54:46.965Z,1.30
2022-08-10T18:00:14.489Z,1.77
2022-08-10T18:05:36.480Z,1.70
2022-08-10T18:10:58.868Z,1.40
2022-08-10T18:16:26.059Z,1.95
2022-08-10T18:21:48.690Z,1.58
2022-08-10T18:27:13.679Z,1.48
2022-08-10T18:32:39.632Z,1.67
2022-08-10T18:38:02.994Z,1.70
2022-08-10T18:44:07.482Z,1.50
2022-08-10T18:49:33.591Z,1.58
2022-08-10T18:55:03.660Z,1.30
2022-08-10T19:01:33.958Z,1.30
2022-08-10T19:07:07.601Z,1.40
2022-08-10T19:12:39.191Z,1.60
2022-08-10T19:18:19.831Z,1.52
2022-08-10T19:23:51.310Z,1.70
2022-08-10T19:30:12.458Z,1.85
2022-08-10T19:35:28.476Z,2.50
2022-08-10T19:41:08.433Z,2.30
2022-08-10T19:46:41.035Z,1.88
2022-08-10T19:52:11.375Z,2.70
2022-08-10T19:57:44.004Z,2.60
2022-08-10T20:03:46.002Z,2.38
2022-08-10T20:09:38.070Z,2.05
2022-08-10T20:15:26.630Z,1.90
2022-08-10T20:20:51.562Z,1.70
2022-08-10T20:26:40.870Z,2.00
2022-08-10T20:32:37.614Z,2.10
2022-08-10T20:38:09.316Z,1.90
2022-08-10T20:44:00.135Z,1.80
2022-08-10T20:50:07.215Z,1.85
2022-08-10T20:55:51.909Z,1.77
2022-08-10T21:02:05.994Z,1.73
2022-08-10T21:07:43.970Z,1.40
2022-08-10T21:13:29.743Z,1.80
2022-08-10T21:19:12.837Z,1.67
2022-08-10T21:24:52.287Z,1.50
2022-08-10T21:30:20.642Z,1.40
2022-08-10T21:35:49.232Z,1.75
2022-08-10T21:41:56.519Z,1.77
2022-08-10T21:48:07.276Z,1.70
2022-08-10T21:54:05.393Z,1.65
2022-08-10T22:00:00.735Z,1.83
2022-08-10T22:05:54.388Z,1.63
2022-08-10T22:11:42.843Z,1.60
2022-08-10T22:18:03.294Z,2.20
2022-08-10T22:23:41.373Z,1.88
2022-08-10T22:29:42.564Z,1.90
2022-08-10T22:36:00.595Z,2.22
2022-08-10T22:41:53.125Z,2.10
2022-08-10T22:47:38.353Z,2.60
2022-08-10T22:53:08.676Z,2.28
2022-08-10T22:58:39.479Z,2.10
2022-08-10T23:04:08.061Z,2.58
2022-08-10T23:09:32.908Z,3.03
2022-08-10T23:15:16.474Z,1.98
2022-08-10T23:20:41.203Z,1.95
2022-08-10T23:26:06.233Z,1.58
2022-08-10T23:31:59.210Z,1.88
2022-08-10T23:37:15.281Z,2.03
2022-08-10T23:42:40.285Z,2.20
2022-08-10T23:48:02.939Z,2.20
2022-08-10T23:53:27.907Z,2.38
2022-08-10T23:58:57.073Z,1.83
